Time;durP1;ratioP1;P1;durP2;ratioP2;P2;SDS_P1;SDS_P2;PMS_P1;PMS_P2;Temp;Humidity;BMP_temperature;BMP_pressure;BME280_temperature;BME280_humidity;BME280_pressure;Samples;Min_cycle;Max_cycle;Signal;HPM_P1;HPM_P2
2022/03/06 00:02:02;;;;;;;19.43;10.27;;;;;;;;;;5001286;28;20499;-86
2022/03/06 00:04:31;;;;;;;19.97;9.20;;;-2.10;99.90;;;;;;5004504;28;20453;-87
2022/03/06 00:06:58;;;;;;;16.87;9.60;;;;;;;;;;5000823;28;20445;-87
2022/03/06 00:09:25;;;;;;;20.97;10.20;;;;;;;;;;5002804;28;20429;-87
2022/03/06 00:11:52;;;;;;;18.50;9.60;;;;;;;;;;5003449;28;20456;-88
2022/03/06 00:14:20;;;;;;;20.00;10.37;;;;;;;;;;5006110;28;20453;-88
2022/03/06 00:16:47;;;;;;;19.50;10.00;;;;;;;;;;5004429;28;20449;-85
2022/03/06 00:19:14;;;;;;;23.87;10.57;;;;;;;;;;5003627;28;20456;-86
2022/03/06 00:21:42;;;;;;;20.90;10.00;;;-2.30;99.90;;;;;;5004103;28;20468;-87
2022/03/06 00:24:09;;;;;;;18.13;9.47;;;;;;;;;;5000134;28;20473;-86
2022/03/06 00:26:36;;;;;;;25.60;9.97;;;;;;;;;;5000605;28;20457;-86
2022/03/06 00:29:04;;;;;;;14.60;9.30;;;;;;;;;;5005011;28;20495;-88
2022/03/06 00:31:31;;;;;;;18.93;9.07;;;;;;;;;;5004170;28;20445;-87
2022/03/06 00:33:58;;;;;;;28.07;15.77;;;;;;;;;;5002833;28;20453;-87
2022/03/06 00:36:25;;;;;;;34.37;14.77;;;;;;;;;;5014669;23;20484;-88
2022/03/06 00:38:54;;;;;;;26.03;12.87;;;-0.50;99.90;;;;;;5022843;28;20448;-87
2022/03/06 00:41:22;;;;;;;24.40;11.50;;;;;;;;;;5019948;28;20464;-88
2022/03/06 00:43:50;;;;;;;25.80;12.90;;;-2.40;99.90;;;;;;5027571;22;20563;-88
2022/03/06 00:46:17;;;;;;;21.27;11.20;;;;;;;;;;5029305;22;20488;-87
2022/03/06 00:48:44;;;;;;;16.40;9.47;;;;;;;;;;5031729;22;20467;-87
2022/03/06 00:51:13;;;;;;;27.20;11.30;;;-2.50;99.90;;;;;;5025665;28;20452;-87
2022/03/06 00:53:40;;;;;;;29.73;11.50;;;;;;;;;;5025971;28;20453;-87
2022/03/06 00:56:09;;;;;;;16.07;9.77;;;;;;;;;;5024830;28;20441;-87
2022/03/06 00:58:37;;;;;;;16.93;9.37;;;;;;;;;;5023958;28;20476;-88
2022/03/06 01:01:05;;;;;;;19.77;8.40;;;-2.50;99.90;;;;;;5022061;28;20488;-88
2022/03/06 01:03:33;;;;;;;17.80;9.37;;;;;;;;;;5022584;28;20941;-88
2022/03/06 01:06:00;;;;;;;19.53;8.90;;;;;;;;;;5025011;28;20453;-87
2022/03/06 01:08:27;;;;;;;22.20;9.50;;;;;;;;;;5021907;28;20456;-87
2022/03/06 01:10:54;;;;;;;21.50;10.00;;;;;;;;;;5024229;28;20459;-87
2022/03/06 01:13:23;;;;;;;20.80;10.47;;;-2.70;99.90;;;;;;5027783;28;20952;-86
2022/03/06 01:15:53;;;;;;;18.57;8.83;;;-2.70;99.90;;;;;;5079945;22;20562;-86
2022/03/06 01:18:21;;;;;;;16.10;8.63;;;;;;;;;;5045149;28;20444;-86
2022/03/06 01:20:48;;;;;;;20.10;10.13;;;;;;;;;;5043843;28;20483;-85
2022/03/06 01:23:15;;;;;;;17.63;9.60;;;;;;;;;;5035076;28;20467;-87
2022/03/06 01:25:42;;;;;;;18.93;9.90;;;;;;;;;;5036482;28;20443;-86
2022/03/06 01:28:10;;;;;;;16.63;8.97;;;;;;;;;;5038084;28;20446;-87
2022/03/06 01:30:38;;;;;;;18.23;8.60;;;-1.80;99.90;;;;;;5038682;28;20443;-85
2022/03/06 01:33:05;;;;;;;14.70;8.40;;;;;;;;;;5033532;28;20454;-86
2022/03/06 01:35:32;;;;;;;18.03;9.03;;;;;;;;;;5041859;28;20463;-88
2022/03/06 01:38:00;;;;;;;15.57;8.03;;;;;;;;;;5039354;28;20526;-86
2022/03/06 01:40:27;;;;;;;15.93;8.63;;;;;;;;;;5039730;28;20944;-86
2022/03/06 01:42:54;;;;;;;14.80;8.40;;;;;;;;;;5038852;28;20456;-87
2022/03/06 01:45:23;;;;;;;17.23;9.80;;;-2.80;99.90;;;;;;5037216;28;20457;-86
2022/03/06 01:47:54;;;;;;;18.50;9.40;;;-2.80;99.90;;;;;;5035926;28;20447;-86
2022/03/06 01:50:23;;;;;;;26.90;10.33;;;-2.90;99.90;;;;;;5036537;28;20443;-87
2022/03/06 01:52:51;;;;;;;18.00;8.97;;;-2.90;99.90;;;;;;5036058;28;20784;-86
2022/03/06 01:55:20;;;;;;;20.30;9.73;;;-2.90;99.90;;;;;;5034667;28;20454;-86
2022/03/06 01:57:47;;;;;;;17.97;8.17;;;;;;;;;;5037207;28;20456;-86
2022/03/06 02:00:17;;;;;;;20.90;9.77;;;-2.90;99.90;;;;;;5031625;28;20440;-86
2022/03/06 02:02:44;;;;;;;17.53;9.27;;;;;;;;;;5036916;28;20499;-86
2022/03/06 02:05:13;;;;;;;23.77;9.80;;;;;;;;;;5038978;28;20492;-86
2022/03/06 02:07:40;;;;;;;15.63;9.03;;;;;;;;;;5036631;28;20456;-86
2022/03/06 02:10:09;;;;;;;20.97;8.47;;;-3.00;99.90;;;;;;5035203;28;20433;-86
2022/03/06 02:12:37;;;;;;;20.90;8.77;;;-3.00;99.90;;;;;;5036510;28;20455;-86
2022/03/06 02:15:07;;;;;;;19.50;9.40;;;-3.00;99.90;;;;;;5031594;28;20443;-86
2022/03/06 02:17:37;;;;;;;23.30;9.37;;;;;;;;;;5035953;28;20447;-87
2022/03/06 02:20:07;;;;;;;19.43;9.03;;;-3.00;99.90;;;;;;5036864;28;20455;-86
2022/03/06 02:22:37;;;;;;;18.47;8.97;;;-3.10;99.90;;;;;;5034325;28;20503;-85
2022/03/06 02:25:07;;;;;;;18.17;9.23;;;-3.10;99.90;;;;;;5036086;28;20458;-85
2022/03/06 02:27:34;;;;;;;16.60;9.80;;;;;;;;;;5037899;28;20443;-88
2022/03/06 02:30:01;;;;;;;20.10;9.63;;;;;;;;;;5019143;28;20950;-86
2022/03/06 02:32:28;;;;;;;15.37;8.27;;;;;;;;;;5035791;28;20459;-87
2022/03/06 02:34:56;;;;;;;16.13;8.80;;;;;;;;;;5036582;28;20450;-86
2022/03/06 02:37:23;;;;;;;15.27;8.43;;;;;;;;;;5032696;28;20451;-86
2022/03/06 02:39:51;;;;;;;15.83;8.37;;;;;;;;;;5038067;28;20458;-88
2022/03/06 02:42:26;;;;;;;14.20;7.80;;;-3.20;99.90;;;;;;5036137;28;20499;-85
2022/03/06 02:44:53;;;;;;;14.53;8.43;;;;;;;;;;5048471;22;20869;-85
2022/03/06 02:47:23;;;;;;;14.27;7.27;;;;;;;;;;5042639;28;20463;-85
2022/03/06 02:49:51;;;;;;;17.23;8.17;;;;;;;;;;5036280;28;20443;-87
2022/03/06 02:52:19;;;;;;;13.80;8.10;;;;;;;;;;5045162;22;20455;-87
2022/03/06 02:54:46;;;;;;;14.03;7.70;;;;;;;;;;5034449;28;20959;-86
2022/03/06 02:57:15;;;;;;;13.63;7.30;;;-3.50;99.90;;;;;;5041355;28;20458;-87
2022/03/06 02:59:42;;;;;;;16.93;8.53;;;;;;;;;;5040644;28;20455;-85
2022/03/06 03:02:09;;;;;;;14.53;8.53;;;;;;;;;;5038242;28;20851;-86
2022/03/06 03:04:38;;;;;;;14.60;8.60;;;-3.30;99.90;;;;;;5039873;28;20447;-86
2022/03/06 03:07:06;;;;;;;16.40;8.60;;;;;;;;;;5041031;28;20444;-86
2022/03/06 03:09:34;;;;;;;17.70;8.43;;;;;;;;;;4981425;28;20965;-89
2022/03/06 03:12:01;;;;;;;12.90;7.83;;;;;;;;;;4983154;28;20493;-84
2022/03/06 03:14:32;;;;;;;16.10;7.57;;;;;;;;;;4981562;28;20454;-86
2022/03/06 03:16:59;;;;;;;14.07;7.73;;;;;;;;;;4980143;28;20458;-85
2022/03/06 03:19:26;;;;;;;14.13;8.10;;;;;;;;;;4982053;28;20454;-86
2022/03/06 03:21:54;;;;;;;19.00;8.17;;;;;;;;;;4979931;28;20540;-86
2022/03/06 03:24:21;;;;;;;15.33;8.87;;;;;;;;;;4979180;28;20545;-86
2022/03/06 03:26:48;;;;;;;16.83;8.50;;;;;;;;;;4988684;28;20452;-86
2022/03/06 03:29:16;;;;;;;13.17;7.50;;;;;;;;;;5022201;28;20436;-86
2022/03/06 03:31:44;;;;;;;14.67;7.90;;;-3.60;99.90;;;;;;5022124;28;20956;-85
2022/03/06 03:34:12;;;;;;;14.07;7.13;;;;;;;;;;5022455;28;20444;-86
2022/03/06 03:36:39;;;;;;;12.77;7.00;;;;;;;;;;5022669;28;20452;-86
2022/03/06 03:39:07;;;;;;;15.10;7.70;;;;;;;;;;5021427;28;20445;-86
2022/03/06 03:41:34;;;;;;;12.77;6.93;;;;;;;;;;5029530;22;20487;-85
2022/03/06 03:44:02;;;;;;;17.83;8.90;;;;;;;;;;5000882;28;20461;-85
2022/03/06 03:46:29;;;;;;;12.70;7.33;;;;;;;;;;5003174;28;20479;-85
2022/03/06 03:48:57;;;;;;;12.80;7.97;;;-3.60;99.90;;;;;;5002152;28;20449;-86
2022/03/06 03:51:24;;;;;;;18.67;8.27;;;;;;;;;;5001940;28;20453;-86
2022/03/06 03:53:51;;;;;;;15.50;7.80;;;;;;;;;;5000681;28;20966;-86
2022/03/06 03:56:21;;;;;;;13.23;7.37;;;;;;;;;;5003004;28;20452;-86
2022/03/06 03:58:48;;;;;;;12.87;7.30;;;;;;;;;;5001108;28;20493;-86
2022/03/06 04:01:17;;;;;;;17.60;8.23;;;;;;;;;;5001449;28;20450;-87
2022/03/06 04:03:45;;;;;;;15.30;7.47;;;;;;;;;;5030528;23;20522;-86
2022/03/06 04:06:13;;;;;;;17.23;6.60;;;;;;;;;;5047371;28;20458;-86
2022/03/06 04:08:41;;;;;;;15.80;8.13;;;;;;;;;;5053131;22;20484;-87
2022/03/06 04:11:08;;;;;;;9.67;6.33;;;;;;;;;;5042542;28;20458;-87
2022/03/06 04:13:35;;;;;;;13.70;7.43;;;;;;;;;;5047383;28;20432;-86
2022/03/06 04:16:02;;;;;;;13.77;7.57;;;;;;;;;;5047159;28;20444;-87
2022/03/06 04:18:29;;;;;;;15.10;8.23;;;;;;;;;;5047071;28;20443;-87
2022/03/06 04:20:58;;;;;;;19.97;7.70;;;;;;;;;;5052011;22;20794;-86
2022/03/06 04:23:27;;;;;;;13.00;7.83;;;-3.70;99.90;;;;;;5054855;22;20497;-86
2022/03/06 04:25:54;;;;;;;15.23;7.67;;;;;;;;;;5054076;22;20466;-86
2022/03/06 04:28:21;;;;;;;17.30;8.27;;;;;;;;;;5054759;22;20494;-86
2022/03/06 04:30:48;;;;;;;11.33;7.03;;;;;;;;;;5046275;28;20451;-86
2022/03/06 04:33:16;;;;;;;14.53;7.40;;;;;;;;;;5048184;28;20450;-86
2022/03/06 04:35:43;;;;;;;16.70;8.80;;;;;;;;;;5052400;22;20459;-85
2022/03/06 04:38:10;;;;;;;23.40;8.20;;;;;;;;;;5027300;28;20456;-87
2022/03/06 04:40:39;;;;;;;13.70;7.57;;;;;;;;;;5024609;28;20448;-86
2022/03/06 04:43:06;;;;;;;15.93;7.17;;;;;;;;;;5028996;28;20492;-85
2022/03/06 04:45:33;;;;;;;13.90;7.70;;;;;;;;;;5029038;28;20429;-87
2022/03/06 04:48:00;;;;;;;13.43;7.47;;;;;;;;;;5026561;28;20447;-86
2022/03/06 04:50:27;;;;;;;15.00;7.30;;;;;;;;;;5028180;28;20454;-86
2022/03/06 04:52:54;;;;;;;13.70;7.47;;;;;;;;;;5025946;28;20444;-86
2022/03/06 04:55:22;;;;;;;15.93;7.50;;;;;;;;;;5027262;28;20441;-86
2022/03/06 04:57:50;;;;;;;12.00;6.57;;;-4.00;99.90;;;;;;5021513;28;20449;-85
2022/03/06 05:00:18;;;;;;;14.70;7.83;;;;;;;;;;5024544;28;20445;-87
2022/03/06 05:02:45;;;;;;;17.37;8.63;;;;;;;;;;5027438;28;20491;-89
2022/03/06 05:05:12;;;;;;;11.50;6.53;;;;;;;;;;5031894;28;20455;-87
2022/03/06 05:07:39;;;;;;;18.57;7.70;;;;;;;;;;5028214;28;20436;-92
2022/03/06 05:10:09;;;;;;;11.10;7.10;;;-4.10;99.90;;;;;;5030009;28;20437;-86
2022/03/06 05:12:37;;;;;;;12.90;6.20;;;;;;;;;;5029687;28;20451;-86
2022/03/06 05:15:07;;;;;;;12.47;7.03;;;-4.10;99.90;;;;;;5029314;28;20449;-85
2022/03/06 05:17:38;;;;;;;17.00;7.37;;;;;;;;;;5012529;28;20450;-85
2022/03/06 05:20:05;;;;;;;12.97;6.60;;;;;;;;;;5027159;28;20436;-86
2022/03/06 05:22:33;;;;;;;15.13;7.63;;;;;;;;;;5026448;28;20470;-90
2022/03/06 05:25:02;;;;;;;13.67;6.67;;;-4.10;99.90;;;;;;5020218;28;20435;-88
2022/03/06 05:27:30;;;;;;;15.53;7.30;;;;;;;;;;5013890;28;20448;-89
2022/03/06 05:29:58;;;;;;;11.97;6.90;;;;;;;;;;5015536;28;20448;-85
2022/03/06 05:32:28;;;;;;;13.07;6.43;;;;;;;;;;5004942;28;20440;-86
2022/03/06 05:34:55;;;;;;;19.10;7.97;;;;;;;;;;4998544;28;20503;-85
2022/03/06 05:37:25;;;;;;;15.00;7.50;;;;;;;;;;5006764;28;20987;-86
2022/03/06 05:39:52;;;;;;;14.27;7.00;;;;;;;;;;4997243;28;20906;-85
2022/03/06 05:42:20;;;;;;;14.30;8.13;;;;;;;;;;5000950;28;20478;-85
2022/03/06 05:44:47;;;;;;;14.70;7.57;;;;;;;;;;5006308;28;20445;-86
2022/03/06 05:47:17;;;;;;;13.73;7.10;;;;;;;;;;5009658;28;20818;-85
2022/03/06 05:49:46;;;;;;;16.33;6.50;;;;;;;;;;5006854;28;20455;-86
2022/03/06 05:52:14;;;;;;;17.43;8.17;;;;;;;;;;5008854;28;20436;-87
2022/03/06 05:54:41;;;;;;;13.27;7.37;;;;;;;;;;5005298;28;20458;-87
2022/03/06 05:57:08;;;;;;;13.77;7.60;;;;;;;;;;5007881;28;20556;-85
2022/03/06 05:59:36;;;;;;;16.40;7.70;;;;;;;;;;5008117;28;20477;-87
2022/03/06 06:02:06;;;;;;;16.40;8.03;;;;;;;;;;5026963;22;20444;-87
2022/03/06 06:04:33;;;;;;;12.73;6.90;;;;;;;;;;5028344;28;20436;-86
2022/03/06 06:07:02;;;;;;;17.10;7.90;;;;;;;;;;5045231;22;20465;-88
2022/03/06 06:09:29;;;;;;;18.47;8.07;;;;;;;;;;5045745;28;20445;-86
2022/03/06 06:11:56;;;;;;;12.60;6.80;;;;;;;;;;5043972;28;20484;-89
2022/03/06 06:14:23;;;;;;;15.57;8.10;;;;;;;;;;5046576;28;20456;-86
2022/03/06 06:16:51;;;;;;;13.80;7.57;;;;;;;;;;5043688;28;20950;-87
2022/03/06 06:19:18;;;;;;;15.30;7.87;;;;;;;;;;5047040;28;20455;-86
2022/03/06 06:21:45;;;;;;;14.70;8.30;;;;;;;;;;5049966;22;20483;-85
2022/03/06 06:24:15;;;;;;;14.20;7.90;;;-3.40;99.90;;;;;;5040188;28;20471;-86
2022/03/06 06:26:42;;;;;;;14.83;7.93;;;;;;;;;;5034130;28;20817;-86
2022/03/06 06:29:10;;;;;;;15.97;8.27;;;;;;;;;;5025801;28;20458;-86
2022/03/06 06:31:37;;;;;;;16.03;8.50;;;;;;;;;;5023369;28;20456;-85
2022/03/06 06:34:04;;;;;;;15.93;9.20;;;;;;;;;;5134414;23;20490;-87
2022/03/06 06:36:31;;;;;;;16.27;9.00;;;;;;;;;;5043519;28;20444;-88
2022/03/06 06:38:58;;;;;;;17.50;8.80;;;;;;;;;;5044029;28;20440;-86
2022/03/06 06:41:27;;;;;;;18.63;9.90;;;;;;;;;;5039557;28;20446;-89
2022/03/06 06:43:57;;;;;;;12.70;8.30;;;-2.10;99.90;;;;;;5039047;28;20482;-86
2022/03/06 06:46:28;;;;;;;16.40;8.43;;;;;;;;;;5036861;28;20887;-86
2022/03/06 06:49:10;;;;;;;13.37;8.37;;;;;;;;;;5039849;28;20439;-85
2022/03/06 06:51:40;;;;;;;15.27;8.20;;;;;;;;;;5039697;28;20443;-85
2022/03/06 06:54:07;;;;;;;17.03;9.17;;;;;;;;;;5044128;28;20455;-86
2022/03/06 06:56:35;;;;;;;16.00;9.10;;;-1.10;99.90;;;;;;5019196;28;20455;-93
2022/03/06 06:59:02;;;;;;;16.30;9.40;;;;;;;;;;5020128;28;20471;-85
2022/03/06 07:01:30;;;;;;;19.17;9.20;;;;;;;;;;5022488;28;20448;-85
2022/03/06 07:03:57;;;;;;;14.30;8.87;;;;;;;;;;5017747;28;20495;-88
2022/03/06 07:06:24;;;;;;;14.23;9.10;;;;;;;;;;5023942;28;20451;-86
2022/03/06 07:08:51;;;;;;;15.50;9.60;;;;;;;;;;5017690;28;20456;-87
2022/03/06 07:11:18;;;;;;;15.20;9.53;;;;;;;;;;5018265;28;20472;-86
2022/03/06 07:13:47;;;;;;;16.90;10.50;;;0.20;99.90;;;;;;5021071;28;20461;-86
2022/03/06 07:16:14;;;;;;;18.77;10.63;;;;;;;;;;5017170;28;20448;-86
2022/03/06 07:18:41;;;;;;;14.27;9.70;;;;;;;;;;5027163;28;20464;-85
2022/03/06 07:21:09;;;;;;;19.47;11.50;;;;;;;;;;5026431;28;20464;-85
2022/03/06 07:23:36;;;;;;;14.77;10.47;;;;;;;;;;5025070;28;20517;-85
2022/03/06 07:26:03;;;;;;;18.93;10.17;;;1.20;99.90;;;;;;5029218;28;20448;-85
2022/03/06 07:28:30;;;;;;;16.27;11.90;;;;;;;;;;5027292;28;20455;-91
2022/03/06 07:30:59;;;;;;;22.30;12.47;;;;;;;;;;5043230;22;20491;-86
2022/03/06 07:33:26;;;;;;;15.33;11.20;;;;;;;;;;5046881;28;20439;-85
2022/03/06 07:35:53;;;;;;;18.27;11.57;;;;;;;;;;5041552;28;20440;-85
2022/03/06 07:38:20;;;;;;;15.53;11.83;;;;;;;;;;5042554;28;20454;-85
2022/03/06 07:40:47;;;;;;;16.90;11.97;;;;;;;;;;5043982;28;20450;-83
2022/03/06 07:43:15;;;;;;;18.27;11.53;;;;;;;;;;5046900;28;20865;-84
2022/03/06 07:45:42;;;;;;;22.80;12.00;;;;;;;;;;5045755;28;20799;-84
2022/03/06 07:48:10;;;;;;;14.90;10.03;;;;;;;;;;5046772;28;20456;-84
2022/03/06 07:50:37;;;;;;;15.63;11.03;;;;;;;;;;5038222;28;20459;-84
2022/03/06 07:53:05;;;;;;;17.23;10.97;;;;;;;;;;5042134;28;20451;-84
2022/03/06 07:55:32;;;;;;;15.97;10.53;;;;;;;;;;5041621;28;20965;-86
2022/03/06 07:57:59;;;;;;;14.33;10.53;;;;;;;;;;5043741;28;20448;-85
2022/03/06 08:00:26;;;;;;;16.00;11.27;;;;;;;;;;5041205;28;20452;-85
2022/03/06 08:02:56;;;;;;;19.10;11.00;;;;;;;;;;5039458;28;20494;-86
2022/03/06 08:05:24;;;;;;;15.53;12.33;;;5.20;96.40;;;;;;5039996;28;20927;-85
2022/03/06 08:07:51;;;;;;;16.07;11.67;;;;;;;;;;5042510;28;20462;-86
2022/03/06 08:10:18;;;;;;;15.03;11.27;;;;;;;;;;5039636;28;20451;-88
2022/03/06 08:12:48;;;;;;;14.67;11.03;;;4.90;95.60;;;;;;5037499;28;20474;-88
2022/03/06 08:15:15;;;;;;;15.67;11.53;;;;;;;;;;5039167;28;20436;-86
2022/03/06 08:17:42;;;;;;;12.40;10.63;;;;;;;;;;5042964;28;20814;-87
2022/03/06 08:20:11;;;;;;;16.20;11.83;;;5.80;94.50;;;;;;5043111;28;20450;-86
2022/03/06 08:22:39;;;;;;;16.93;12.83;;;5.60;94.20;;;;;;5045152;28;20455;-88
2022/03/06 08:25:08;;;;;;;17.00;12.17;;;6.30;94.40;;;;;;5041783;28;20448;-87
2022/03/06 08:27:35;;;;;;;13.57;10.77;;;;;;;;;;5038568;28;20448;-87
2022/03/06 08:30:04;;;;;;;17.47;12.80;;;5.90;92.90;;;;;;5043737;28;20456;-88
2022/03/06 08:32:31;;;;;;;14.70;11.47;;;;;;;;;;5035108;28;20453;-87
2022/03/06 08:34:59;;;;;;;17.07;11.53;;;;;;;;;;5040960;28;20455;-87
2022/03/06 08:37:28;;;;;;;18.00;12.20;;;;;;;;;;5022774;28;20814;-89
2022/03/06 08:39:56;;;;;;;16.87;12.40;;;6.60;92.60;;;;;;5018257;28;20446;-88
2022/03/06 08:42:23;;;;;;;14.77;11.40;;;;;;;;;;5036805;22;20494;-88
2022/03/06 08:44:50;;;;;;;15.53;11.77;;;;;;;;;;5032246;28;20492;-85
2022/03/06 08:47:18;;;;;;;16.70;11.20;;;;;;;;;;5026648;28;20456;-85
2022/03/06 08:49:45;;;;;;;14.67;11.27;;;;;;;;;;5019454;28;20467;-87
2022/03/06 08:52:12;;;;;;;17.70;10.80;;;;;;;;;;5034949;28;20501;-85
2022/03/06 08:54:39;;;;;;;18.67;12.90;;;;;;;;;;5041592;28;20801;-86
2022/03/06 08:57:08;;;;;;;17.07;11.70;;;6.90;91.30;;;;;;5043457;28;20444;-87
2022/03/06 08:59:35;;;;;;;16.03;10.70;;;;;;;;;;5041485;28;20443;-87
2022/03/06 09:02:02;;;;;;;16.73;10.33;;;;;;;;;;5045113;28;20443;-89
2022/03/06 09:04:32;;;;;;;15.40;11.10;;;;;;;;;;5038438;28;20487;-90
2022/03/06 09:07:00;;;;;;;10.23;7.87;;;;;;;;;;5039319;28;20478;-90
2022/03/06 09:09:27;;;;;;;13.37;9.93;;;;;;;;;;5037367;28;20465;-92
2022/03/06 09:11:54;;;;;;;12.67;8.90;;;;;;;;;;5035295;28;20966;-89
2022/03/06 09:14:23;;;;;;;11.47;7.90;;;;;;;;;;5031833;28;20447;-91
2022/03/06 09:16:50;;;;;;;16.57;11.10;;;;;;;;;;5031737;28;20447;-90
2022/03/06 09:19:17;;;;;;;14.53;10.60;;;;;;;;;;5034475;28;20456;-90
2022/03/06 09:21:44;;;;;;;12.17;9.23;;;;;;;;;;5039553;28;20491;-86
2022/03/06 09:24:11;;;;;;;12.70;8.33;;;6.70;84.20;;;;;;4992298;28;20857;-88
2022/03/06 09:26:39;;;;;;;12.17;8.50;;;;;;;;;;5042921;28;20474;-88
2022/03/06 09:29:06;;;;;;;14.20;9.83;;;;;;;;;;5042030;28;20459;-90
2022/03/06 09:31:34;;;;;;;15.80;10.23;;;7.60;83.30;;;;;;5043713;28;20436;-89
2022/03/06 09:34:01;;;;;;;13.20;9.17;;;;;;;;;;5043432;28;20455;-87
2022/03/06 09:36:29;;;;;;;10.87;8.93;;;;;;;;;;5044754;28;20444;-89
2022/03/06 09:38:56;;;;;;;15.47;9.40;;;;;;;;;;5035545;28;20432;-88
2022/03/06 09:41:27;;;;;;;14.50;9.20;;;7.50;78.90;;;;;;5035215;28;20486;-90
2022/03/06 09:43:56;;;;;;;13.17;9.13;;;7.60;79.20;;;;;;5046322;22;20495;-90
2022/03/06 09:46:24;;;;;;;11.77;8.50;;;;;;;;;;5034656;28;20447;-87
2022/03/06 09:48:52;;;;;;;13.70;8.10;;;;;;;;;;5039186;28;20459;-90
2022/03/06 09:51:20;;;;;;;15.10;10.33;;;;;;;;;;5036072;28;20498;-91
2022/03/06 09:53:47;;;;;;;12.60;9.17;;;;;;;;;;5032744;28;20963;-91
2022/03/06 09:56:15;;;;;;;14.70;9.33;;;;;;;;;;5030172;28;20479;-93
2022/03/06 09:58:42;;;;;;;14.53;9.63;;;;;;;;;;5034086;28;20455;-92
2022/03/06 10:01:09;;;;;;;18.43;10.33;;;;;;;;;;5036870;28;20435;-90
2022/03/06 10:03:38;;;;;;;15.43;9.40;;;;;;;;;;5033781;28;20479;-93
2022/03/06 10:06:09;;;;;;;13.80;9.30;;;;;;;;;;5035695;28;20803;-91
2022/03/06 10:08:37;;;;;;;14.07;9.97;;;;;;;;;;5035440;28;20498;-90
2022/03/06 10:11:06;;;;;;;14.03;10.10;;;7.30;76.10;;;;;;5032604;28;20455;-92
2022/03/06 10:13:35;;;;;;;12.07;8.70;;;8.10;74.80;;;;;;5036472;28;20928;-94
2022/03/06 10:16:05;;;;;;;13.87;9.77;;;7.80;73.60;;;;;;5035842;28;20435;-94
2022/03/06 10:18:34;;;;;;;14.33;10.50;;;7.90;75.10;;;;;;5041877;28;20454;-92
2022/03/06 10:21:12;;;;;;;13.20;10.10;;;7.50;74.00;;;;;;5040921;28;20483;-93
2022/03/06 10:23:40;;;;;;;14.13;10.13;;;;;;;;;;5196010;22;20463;-95
2022/03/06 10:26:08;;;;;;;13.30;10.07;;;;;;;;;;5046566;28;20455;-90
2022/03/06 10:31:27;;;;;;;14.30;9.53;;;5.90;79.80;;;;;;5047451;28;20447;-88
2022/03/06 10:34:03;;;;;;;13.57;9.83;;;6.10;80.30;;;;;;5047822;28;20458;-88
2022/03/06 10:36:35;;;;;;;13.33;9.60;;;5.70;79.70;;;;;;5072041;22;20449;-87
2022/03/06 10:39:03;;;;;;;14.17;8.30;;;;;;;;;;5043898;28;20813;-89
2022/03/06 10:41:38;;;;;;;13.50;10.40;;;6.20;99.90;;;;;;5055664;28;20451;-88
2022/03/06 10:44:08;;;;;;;14.70;9.50;;;5.20;81.20;;;;;;5063274;22;20518;-88
2022/03/06 10:46:36;;;;;;;16.37;9.80;;;5.70;81.40;;;;;;5054508;28;20439;-89
2022/03/06 10:49:12;;;;;;;15.90;9.73;;;5.70;80.80;;;;;;5051349;22;20479;-90
2022/03/06 10:51:42;;;;;;;13.63;9.33;;;5.40;81.40;;;;;;5049719;28;20454;-89
2022/03/06 10:54:13;;;;;;;12.70;8.40;;;5.00;81.00;;;;;;5055551;22;20471;-89
2022/03/06 10:56:40;;;;;;;15.53;9.83;;;;;;;;;;5011360;28;20447;-87
2022/03/06 10:59:08;;;;;;;11.77;8.07;;;4.70;81.90;;;;;;5047190;28;20443;-88
2022/03/06 11:01:36;;;;;;;13.67;8.53;;;;;;;;;;5044430;28;20443;-88
2022/03/06 11:04:04;;;;;;;15.37;10.23;;;5.00;78.40;;;;;;5056983;22;20502;-89
2022/03/06 11:06:38;;;;;;;13.83;9.80;;;5.10;79.40;;;;;;5047333;28;20447;-90
2022/03/06 11:09:07;;;;;;;13.17;10.30;;;;;;;;;;5052371;28;20455;-89
2022/03/06 11:11:40;;;;;;;13.60;9.00;;;;;;;;;;5059989;22;20501;-89
2022/03/06 11:14:10;;;;;;;18.00;9.50;;;;;;;;;;5071894;22;20483;-88
2022/03/06 11:16:48;;;;;;;13.40;9.40;;;5.40;80.40;;;;;;5046740;28;20439;-87
2022/03/06 11:19:19;;;;;;;15.07;9.60;;;;;;;;;;4984226;28;20509;-89
2022/03/06 11:22:06;;;;;;;14.67;9.73;;;6.90;99.00;;;;;;4968135;29;20539;-89
2022/03/06 11:24:49;;;;;;;16.23;9.80;;;8.20;98.30;;;;;;4935483;29;21296;-88
2022/03/06 11:27:40;;;;;;;15.00;10.00;;;7.70;97.00;;;;;;4964027;28;20443;-88
2022/03/06 11:30:11;;;;;;;13.70;9.73;;;6.70;95.90;;;;;;4968049;29;20440;-89
2022/03/06 11:32:39;;;;;;;14.37;9.70;;;6.60;76.10;;;;;;4962423;29;20545;-90
2022/03/06 11:35:15;;;;;;;14.50;9.33;;;6.60;77.00;;;;;;4963332;29;21000;-89
2022/03/06 11:37:47;;;;;;;13.97;8.63;;;6.20;99.90;;;;;;5005413;28;20444;-88
2022/03/06 11:40:54;;;;;;;12.73;8.83;;;5.70;94.40;;;;;;5027386;28;20463;-88
2022/03/06 11:46:02;;;;;;;15.23;10.20;;;5.90;77.40;;;;;;5047969;22;20485;-89
2022/03/06 11:49:11;;;;;;;12.37;9.37;;;6.00;76.80;;;;;;5052620;28;20200;-88
2022/03/06 11:51:45;;;;;;;12.27;8.80;;;5.80;96.90;;;;;;5045112;28;20455;-91
2022/03/06 11:54:17;;;;;;;14.13;10.00;;;6.10;77.50;;;;;;5046670;28;20441;-91
2022/03/06 11:57:02;;;;;;;12.90;8.80;;;6.00;76.10;;;;;;5057606;28;20444;-88
2022/03/06 12:00:15;;;;;;;15.83;9.57;;;5.80;96.90;;;;;;5061492;23;20492;-88
2022/03/06 12:02:48;;;;;;;11.90;8.10;;;7.80;75.30;;;;;;5021062;28;20448;-89
2022/03/06 12:05:16;;;;;;;12.90;8.93;;;;;;;;;;5021967;28;20492;-88
2022/03/06 12:07:44;;;;;;;11.50;8.93;;;;;;;;;;5023477;28;20444;-90
2022/03/06 12:10:12;;;;;;;10.03;8.03;;;6.50;72.30;;;;;;5001249;28;20464;-89
2022/03/06 12:12:40;;;;;;;12.67;9.40;;;6.70;72.50;;;;;;4999755;28;20449;-96
2022/03/06 12:15:14;;;;;;;13.23;9.30;;;7.30;71.80;;;;;;4996581;28;20465;-93
2022/03/06 12:17:42;;;;;;;12.87;8.40;;;;;;;;;;5001004;28;20444;-93
2022/03/06 12:20:43;;;;;;;12.53;8.40;;;7.50;69.70;;;;;;4994754;28;20491;-92
2022/03/06 12:23:22;;;;;;;16.03;10.63;;;7.20;71.40;;;;;;4999931;28;20453;-90
2022/03/06 12:25:57;;;;;;;17.87;15.10;;;8.20;70.30;;;;;;4997530;28;20489;-88
2022/03/06 12:28:36;;;;;;;12.43;7.97;;;8.70;67.00;;;;;;4998470;28;20452;-90
2022/03/06 12:31:33;;;;;;;17.10;12.93;;;9.20;96.90;;;;;;4999908;28;20452;-93
2022/03/06 12:34:37;;;;;;;13.27;9.60;;;8.00;66.20;;;;;;4998955;28;20442;-90
2022/03/06 12:37:06;;;;;;;11.80;8.60;;;;;;;;;;4993270;28;20465;-92
2022/03/06 12:39:36;;;;;;;11.27;8.67;;;8.20;66.30;;;;;;5009800;23;20493;-90
2022/03/06 12:42:04;;;;;;;10.63;7.90;;;;;;;;;;5003380;28;20441;-85
2022/03/06 12:44:34;;;;;;;10.47;7.97;;;6.80;69.10;;;;;;5000582;28;20485;-91
2022/03/06 12:47:01;;;;;;;11.33;8.10;;;;;;;;;;5002163;28;20449;-88
2022/03/06 12:49:28;;;;;;;11.63;8.63;;;;;;;;;;5006590;28;20440;-91
2022/03/06 12:52:19;;;;;;;12.87;8.70;;;5.60;71.60;;;;;;5002502;28;20437;-94
2022/03/06 12:54:47;;;;;;;15.37;8.60;;;;;;;;;;4998193;28;20461;-92
2022/03/06 12:57:15;;;;;;;12.67;9.67;;;;;;;;;;5000584;28;20496;-92
2022/03/06 12:59:43;;;;;;;13.20;8.97;;;;;;;;;;5000275;28;20453;-91
2022/03/06 13:02:11;;;;;;;11.20;8.30;;;6.50;73.00;;;;;;5002243;28;20783;-88
2022/03/06 13:04:38;;;;;;;18.80;10.70;;;;;;;;;;4990585;28;20480;-91
2022/03/06 13:07:07;;;;;;;15.60;10.20;;;6.60;72.10;;;;;;4997014;28;20464;-93
2022/03/06 13:09:38;;;;;;;10.33;7.50;;;6.50;94.10;;;;;;4992619;28;20445;-89
2022/03/06 13:12:06;;;;;;;12.37;9.43;;;6.90;71.90;;;;;;4995802;28;20445;-90
2022/03/06 13:14:36;;;;;;;12.47;8.57;;;6.70;93.90;;;;;;4999039;28;20449;-87
2022/03/06 13:17:06;;;;;;;11.23;8.47;;;6.70;71.50;;;;;;5001407;28;20453;-86
2022/03/06 13:19:44;;;;;;;15.30;12.30;;;7.00;94.30;;;;;;5011438;28;20461;-84
2022/03/06 13:22:13;;;;;;;13.60;11.50;;;7.00;72.00;;;;;;5024374;28;20447;-87
2022/03/06 13:24:44;;;;;;;11.53;8.60;;;7.80;71.20;;;;;;5014107;28;20575;-86
2022/03/06 13:27:21;;;;;;;10.77;8.30;;;6.80;94.80;;;;;;5004043;28;20516;-88
2022/03/06 13:30:07;;;;;;;13.03;8.53;;;6.70;98.20;;;;;;4998788;28;20441;-87
2022/03/06 13:32:37;;;;;;;9.57;7.43;;;6.90;70.80;;;;;;5000617;28;20445;-86
2022/03/06 13:35:04;;;;;;;13.37;9.30;;;;;;;;;;4997040;28;20456;-87
2022/03/06 13:37:35;;;;;;;12.67;9.20;;;7.80;70.30;;;;;;4998175;28;20475;-87
2022/03/06 13:40:09;;;;;;;14.70;9.90;;;7.80;68.90;;;;;;4996381;28;20488;-87
2022/03/06 13:42:37;;;;;;;12.13;8.73;;;7.30;68.20;;;;;;4993803;28;20444;-88
2022/03/06 13:45:10;;;;;;;13.47;10.10;;;7.00;70.30;;;;;;4999842;28;20580;-89
2022/03/06 13:47:41;;;;;;;14.90;10.23;;;7.10;93.80;;;;;;4997790;28;20460;-88
2022/03/06 13:50:08;;;;;;;9.30;7.40;;;;;;;;;;5002945;28;20459;-88
2022/03/06 13:52:37;;;;;;;11.57;8.07;;;7.50;69.60;;;;;;5008103;23;20501;-87
2022/03/06 13:55:07;;;;;;;11.03;8.10;;;7.70;69.20;;;;;;4999838;28;20456;-85
2022/03/06 13:57:35;;;;;;;10.50;7.83;;;;;;;;;;4997891;28;20468;-86
2022/03/06 14:00:23;;;;;;;11.27;8.43;;;7.40;70.20;;;;;;4999542;28;20928;-85
2022/03/06 14:02:59;;;;;;;11.57;7.83;;;7.40;93.20;;;;;;5002169;28;20497;-85
2022/03/06 14:05:32;;;;;;;9.60;8.13;;;7.20;71.00;;;;;;5002614;28;21094;-86